createdAt,value
2018-01-17T00:01:55.000Z,23.32
2018-01-17T00:11:55.000Z,23.3
2018-01-17T00:21:55.000Z,23.24
2018-01-17T00:31:55.000Z,23.19
2018-01-17T00:41:55.000Z,23.14
2018-01-17T00:51:56.000Z,23.11
2018-01-17T01:01:56.000Z,23.08
2018-01-17T01:11:56.000Z,23.03
2018-01-17T01:21:56.000Z,23.03
2018-01-17T01:31:56.000Z,22.95
2018-01-17T01:41:56.000Z,22.96
2018-01-17T01:51:56.000Z,22.93
2018-01-17T02:01:56.000Z,22.9
2018-01-17T02:11:56.000Z,22.88
2018-01-17T02:21:56.000Z,22.87
2018-01-17T02:31:56.000Z,22.87
2018-01-17T02:41:56.000Z,22.85
2018-01-17T02:51:56.000Z,22.87
2018-01-17T03:01:56.000Z,22.84
2018-01-17T03:11:56.000Z,22.77
2018-01-17T03:21:56.000Z,22.75
2018-01-17T03:31:56.000Z,22.72
2018-01-17T03:41:56.000Z,22.74
2018-01-17T03:51:56.000Z,22.68
2018-01-17T04:01:56.000Z,22.69
2018-01-17T04:11:56.000Z,22.69
2018-01-17T04:21:56.000Z,22.61
2018-01-17T04:31:56.000Z,22.58
2018-01-17T04:41:56.000Z,22.56
2018-01-17T04:51:56.000Z,22.46
2018-01-17T05:01:56.000Z,22.44
2018-01-17T05:11:56.000Z,22.44
2018-01-17T05:21:56.000Z,22.45
2018-01-17T05:31:56.000Z,22.46
2018-01-17T05:41:56.000Z,22.46
2018-01-17T05:51:57.000Z,22.46
2018-01-17T06:01:56.000Z,22.5
2018-01-17T06:11:56.000Z,22.55
2018-01-17T06:21:56.000Z,22.61
2018-01-17T06:31:56.000Z,22.63
2018-01-17T06:41:56.000Z,22.66
2018-01-17T06:51:56.000Z,22.67
2018-01-17T07:01:56.000Z,22.64
2018-01-17T07:11:56.000Z,22.7
2018-01-17T07:21:56.000Z,22.68
2018-01-17T07:31:56.000Z,22.71
2018-01-17T07:41:56.000Z,22.76
2018-01-17T07:51:56.000Z,22.75
2018-01-17T08:01:57.000Z,22.81
2018-01-17T08:11:56.000Z,22.82
2018-01-17T08:21:56.000Z,22.8
2018-01-17T08:31:56.000Z,22.84
2018-01-17T08:41:56.000Z,22.9
2018-01-17T08:51:56.000Z,22.91
2018-01-17T09:01:56.000Z,23
2018-01-17T09:11:56.000Z,23.09
2018-01-17T09:21:57.000Z,23.11
2018-01-17T09:31:57.000Z,23.17
2018-01-17T09:41:57.000Z,23.31
2018-01-17T09:51:57.000Z,23.68
2018-01-17T10:01:57.000Z,23.6
2018-01-17T10:11:57.000Z,23.77
2018-01-17T10:21:57.000Z,23.76
2018-01-17T10:31:57.000Z,24.25
2018-01-17T10:41:57.000Z,24.59
2018-01-17T10:51:57.000Z,24.53
2018-01-17T11:01:57.000Z,24.64
2018-01-17T11:11:57.000Z,24.51
2018-01-17T11:21:57.000Z,24.47
2018-01-17T11:31:57.000Z,24.39
2018-01-17T11:41:57.000Z,24.37
2018-01-17T11:51:57.000Z,24.44
2018-01-17T12:01:57.000Z,24.35
2018-01-17T12:11:57.000Z,24.33
2018-01-17T12:21:57.000Z,24.21
2018-01-17T12:31:57.000Z,24.14
2018-01-17T12:41:57.000Z,24.08
2018-01-17T12:51:57.000Z,24.11
2018-01-17T13:01:57.000Z,24.05
2018-01-17T13:11:57.000Z,24.07
2018-01-17T13:21:57.000Z,24.03
2018-01-17T13:31:57.000Z,24.06
2018-01-17T13:41:57.000Z,24.09
2018-01-17T13:51:57.000Z,24.08
2018-01-17T14:01:57.000Z,24.09
2018-01-17T14:11:57.000Z,24.11
2018-01-17T14:21:57.000Z,24.14
2018-01-17T14:31:58.000Z,24.09
2018-01-17T14:41:57.000Z,24.1
2018-01-17T14:51:57.000Z,24.11
2018-01-17T15:01:57.000Z,24.17
2018-01-17T15:11:58.000Z,24.14
2018-01-17T15:21:57.000Z,24.08
2018-01-17T15:31:57.000Z,24.13
2018-01-17T15:41:57.000Z,24.1
2018-01-17T15:51:57.000Z,24.1
2018-01-17T16:01:57.000Z,24.06
2018-01-17T16:11:57.000Z,24.01
2018-01-17T16:21:57.000Z,24.02
2018-01-17T16:31:57.000Z,24.01
2018-01-17T16:41:57.000Z,24.07
2018-01-17T17:01:57.000Z,24.14
2018-01-17T17:11:57.000Z,24.08
2018-01-17T17:21:57.000Z,24.13
2018-01-17T17:31:58.000Z,24.12
2018-01-17T17:41:58.000Z,24.17
2018-01-17T17:51:58.000Z,24.11
2018-01-17T18:01:58.000Z,24.05
2018-01-17T18:11:58.000Z,23.99
2018-01-17T18:21:58.000Z,23.99
2018-01-17T18:41:58.000Z,24.02
2018-01-17T18:51:58.000Z,24.1
2018-01-17T19:01:58.000Z,24.11
2018-01-17T19:11:58.000Z,24.15
2018-01-17T19:21:59.000Z,24.18
2018-01-17T19:31:58.000Z,24.25
2018-01-17T19:41:58.000Z,24.27
2018-01-17T19:51:58.000Z,24.3
2018-01-17T20:01:58.000Z,24.39
2018-01-17T20:11:58.000Z,24.32
2018-01-17T20:21:58.000Z,24.34
2018-01-17T20:31:58.000Z,24.37
2018-01-17T20:41:58.000Z,24.35
2018-01-17T20:51:58.000Z,24.38
2018-01-17T21:01:58.000Z,24.4
2018-01-17T21:11:58.000Z,24.57
2018-01-17T21:21:58.000Z,24.46
2018-01-17T21:31:58.000Z,24.54
2018-01-17T21:41:58.000Z,24.47
2018-01-17T21:51:58.000Z,24.53
2018-01-17T22:01:58.000Z,24.56
2018-01-17T22:11:58.000Z,24.59
2018-01-17T22:21:58.000Z,24.57
2018-01-17T22:31:58.000Z,24.54
2018-01-17T22:41:58.000Z,24.52
2018-01-17T22:51:58.000Z,24.49
2018-01-17T23:01:58.000Z,24.59
2018-01-17T23:11:58.000Z,24.48
2018-01-17T23:21:58.000Z,24.47
2018-01-17T23:31:58.000Z,24.46
2018-01-17T23:41:58.000Z,24.44
2018-01-17T23:51:58.000Z,24.39
